Time;durP1;ratioP1;P1;durP2;ratioP2;P2;SDS_P1;SDS_P2;PMS_P1;PMS_P2;Temp;Humidity;BMP_temperature;BMP_pressure;BME280_temperature;BME280_humidity;BME280_pressure;Samples;Min_cycle;Max_cycle;Signal;HPM_P1;HPM_P2
2023/05/11 00:01:16;;;;;;;8.57;7.77;;;;;;;;;;6023660;29;20261;-67
2023/05/11 00:04:36;;;;;;;9.20;7.27;;;;;;;;;;6051669;29;20230;-68
2023/05/11 00:07:57;;;;;;;8.23;7.23;;;;;;;;;;6047748;29;20320;-67
2023/05/11 00:11:18;;;;;;;11.80;9.17;;;;;;;;;;6038170;29;20228;-68
2023/05/11 00:14:40;;;;;;;8.17;7.10;;;;;;;;;;6044866;29;20241;-68
2023/05/11 00:18:01;;;;;;;8.97;7.30;;;;;;;;;;6072984;29;20233;-67
2023/05/11 00:21:22;;;;;;;9.80;7.73;;;;;;;;;;6051048;29;20503;-67
2023/05/11 00:24:42;;;;;;;10.07;8.17;;;;;;;;;;6074061;29;20233;-67
2023/05/11 00:28:03;;;;;;;10.13;7.57;;;;;;;;;;6078573;29;20237;-67
2023/05/11 00:31:25;;;;;;;8.97;8.07;;;;;;;;;;6056545;28;20235;-67
2023/05/11 00:34:46;;;;;;;9.73;8.63;;;;;;;;;;6068335;29;20816;-68
2023/05/11 00:38:07;;;;;;;11.73;8.70;;;;;;;;;;6079587;29;20241;-67
2023/05/11 00:41:27;;;;;;;13.53;10.00;;;;;;;;;;6053290;29;20240;-67
2023/05/11 00:44:48;;;;;;;9.77;8.37;;;;;;;;;;6066246;29;20233;-68
2023/05/11 00:48:10;;;;;;;13.43;8.90;;;;;;;;;;6063991;29;20324;-68
2023/05/11 00:51:31;;;;;;;9.37;8.17;;;;;;;;;;6053963;29;20240;-67
2023/05/11 00:54:52;;;;;;;11.47;8.60;;;;;;;;;;6046770;29;20242;-68
2023/05/11 00:58:12;;;;;;;9.70;7.90;;;;;;;;;;6067637;28;20315;-68
2023/05/11 01:01:34;;;;;;;9.17;8.10;;;;;;;;;;6046575;29;20564;-67
2023/05/11 01:04:56;;;;;;;11.30;10.03;;;;;;;;;;6050940;29;20620;-68
2023/05/11 01:08:18;;;;;;;10.10;8.63;;;;;;;;;;6058120;29;20260;-68
2023/05/11 01:11:42;;;;;;;9.87;7.73;;;;;;;;;;6046492;29;20265;-68
2023/05/11 01:15:06;;;;;;;9.37;8.30;;;;;;;;;;6048820;29;20257;-68
2023/05/11 01:18:30;;;;;;;7.10;5.90;;;;;;;;;;6041091;29;20234;-67
2023/05/11 01:21:57;;;;;;;8.97;7.43;;;;;;;;;;6057236;29;20233;-68
2023/05/11 01:25:26;;;;;;;7.83;7.10;;;;;;;;;;6069738;29;20256;-67
2023/05/11 01:29:02;;;;;;;7.03;6.23;;;;;;;;;;6057675;29;20237;-68
2023/05/11 01:32:26;;;;;;;7.87;6.87;;;;;;;;;;6073546;29;20263;-68
2023/05/11 01:35:51;;;;;;;9.23;7.67;;;;;;;;;;6059442;29;20232;-68
2023/05/11 01:39:12;;;;;;;8.43;6.97;;;;;;;;;;6066552;29;20228;-68
2023/05/11 01:42:35;;;;;;;10.20;8.13;;;;;;;;;;6055067;29;20229;-67
2023/05/11 01:45:59;;;;;;;10.83;8.87;;;;;;;;;;6054775;28;20240;-68
2023/05/11 01:49:21;;;;;;;8.23;7.23;;;;;;;;;;6077618;29;20240;-68
2023/05/11 01:52:43;;;;;;;9.03;7.13;;;;;;;;;;6065155;29;20523;-67
2023/05/11 01:56:04;;;;;;;9.83;7.47;;;;;;;;;;6052458;29;20246;-67
2023/05/11 01:59:25;;;;;;;11.07;8.07;;;;;;;;;;6065137;29;20261;-68
2023/05/11 02:02:48;;;;;;;8.87;7.90;;;;;;;;;;6029653;29;20324;-67
2023/05/11 02:06:11;;;;;;;8.63;7.57;;;;;;;;;;6040909;29;22369;-67
2023/05/11 02:09:33;;;;;;;8.20;7.40;;;;;;;;;;6061283;29;20233;-67
2023/05/11 02:12:54;;;;;;;8.90;7.90;;;;;;;;;;6028809;29;20258;-67
2023/05/11 02:16:16;;;;;;;9.20;7.70;;;;;;;;;;6080539;29;20243;-67
2023/05/11 02:19:38;;;;;;;7.27;5.93;;;;;;;;;;6046366;29;20230;-67
2023/05/11 02:23:00;;;;;;;8.13;7.43;;;;;;;;;;6062072;29;20249;-67
2023/05/11 02:26:21;;;;;;;6.50;5.93;;;;;;;;;;6053859;29;20508;-67
2023/05/11 02:29:43;;;;;;;10.03;8.60;;;;;;;;;;6024172;29;20226;-67
2023/05/11 02:33:05;;;;;;;8.40;7.60;;;;;;;;;;6078925;29;20233;-67
2023/05/11 02:36:28;;;;;;;7.70;7.00;;;;;;;;;;6059441;29;20235;-68
2023/05/11 02:39:52;;;;;;;8.60;7.03;;;;;;;;;;6080432;28;20489;-68
2023/05/11 02:43:13;;;;;;;8.87;7.97;;;;;;;;;;6083164;29;20504;-68
2023/05/11 02:46:41;;;;;;;8.37;6.57;;;;;;;;;;6076339;29;20626;-67
2023/05/11 02:50:03;;;;;;;8.07;6.97;;;;;;;;;;6042206;29;20226;-68
2023/05/11 02:53:27;;;;;;;11.47;7.17;;;;;;;;;;6059431;29;20565;-68
2023/05/11 02:56:49;;;;;;;8.10;6.73;;;;;;;;;;6062745;29;20225;-67
2023/05/11 03:00:11;;;;;;;8.77;6.97;;;;;;;;;;6060373;29;20241;-67
2023/05/11 03:03:32;;;;;;;8.53;7.80;;;;;;;;;;6077546;29;20237;-68
2023/05/11 03:06:52;;;;;;;6.93;6.23;;;;;;;;;;6058981;28;20256;-67
2023/05/11 03:10:13;;;;;;;6.77;5.97;;;;;;;;;;6038601;29;20241;-68
2023/05/11 03:13:38;;;;;;;8.20;7.40;;;;;;;;;;6048431;29;20516;-68
2023/05/11 03:17:00;;;;;;;7.00;6.30;;;;;;;;;;6059226;29;20237;-68
2023/05/11 03:20:22;;;;;;;6.80;6.13;;;;;;;;;;6045217;29;20230;-68
2023/05/11 03:23:43;;;;;;;8.30;6.77;;;;;;;;;;6056821;29;20238;-69
2023/05/11 03:27:04;;;;;;;6.70;6.10;;;;;;;;;;6066278;29;20840;-68
2023/05/11 03:30:28;;;;;;;6.70;6.03;;;;;;;;;;6056506;29;21015;-67
2023/05/11 03:33:50;;;;;;;5.43;4.93;;;;;;;;;;6071051;29;20229;-68
2023/05/11 03:37:13;;;;;;;6.57;5.57;;;;;;;;;;6018062;29;20783;-68
2023/05/11 03:40:36;;;;;;;6.63;5.67;;;;;;;;;;6039922;29;20636;-68
2023/05/11 03:43:58;;;;;;;7.17;6.57;;;;;;;;;;6056197;29;20241;-68
2023/05/11 03:47:22;;;;;;;6.73;6.13;;;;;;;;;;6057596;29;20241;-68
2023/05/11 03:50:43;;;;;;;8.07;7.27;;;;;;;;;;6053888;29;20245;-68
2023/05/11 03:54:03;;;;;;;7.87;7.23;;;;;;;;;;6034256;29;20249;-68
2023/05/11 03:57:25;;;;;;;9.20;6.97;;;;;;;;;;6036119;29;20342;-67
2023/05/11 04:00:45;;;;;;;7.63;6.87;;;;;;;;;;6044556;29;20624;-67
2023/05/11 04:04:07;;;;;;;17.27;12.67;;;;;;;;;;6077905;29;20232;-67
2023/05/11 04:07:30;;;;;;;10.47;9.37;;;;;;;;;;6083507;29;20236;-68
2023/05/11 04:10:51;;;;;;;11.77;9.37;;;;;;;;;;6057650;29;20236;-67
2023/05/11 04:14:12;;;;;;;10.93;7.97;;;;;;;;;;6048927;29;20266;-68
2023/05/11 04:17:32;;;;;;;11.30;8.20;;;;;;;;;;6041738;29;20639;-68
2023/05/11 04:20:54;;;;;;;11.47;10.20;;;;;;;;;;6050296;29;20324;-67
2023/05/11 04:24:15;;;;;;;11.60;10.47;;;;;;;;;;6084651;28;20241;-68
2023/05/11 04:27:35;;;;;;;12.87;11.47;;;;;;;;;;6054968;29;20225;-69
2023/05/11 04:30:57;;;;;;;9.57;7.80;;;;;;;;;;6024704;29;20241;-68
2023/05/11 04:34:18;;;;;;;8.00;7.23;;;;;;;;;;6050664;29;20569;-67
2023/05/11 04:37:40;;;;;;;7.13;6.40;;;;;;;;;;6083350;29;20241;-68
2023/05/11 04:41:03;;;;;;;9.23;6.80;;;;;;;;;;6074642;29;20249;-67
2023/05/11 04:44:24;;;;;;;8.70;7.83;;;;;;;;;;6080182;29;20495;-68
2023/05/11 04:47:44;;;;;;;7.67;6.87;;;;;;;;;;6084137;29;20228;-69
2023/05/11 04:51:05;;;;;;;7.70;6.63;;;;;;;;;;6051718;29;20320;-69
2023/05/11 04:54:30;;;;;;;7.33;6.30;;;;;;;;;;6061761;29;20237;-69
2023/05/11 04:57:50;;;;;;;5.77;5.17;;;;;;;;;;6078184;29;20232;-68
2023/05/11 05:01:11;;;;;;;6.67;5.97;;;;;;;;;;6049428;29;20236;-68
2023/05/11 05:04:31;;;;;;;6.10;4.97;;;;;;;;;;6054696;29;20252;-69
2023/05/11 05:07:53;;;;;;;9.93;5.90;;;;;;;;;;6056924;29;20229;-70
2023/05/11 05:11:15;;;;;;;15.40;9.17;;;;;;;;;;6078828;29;20254;-68
2023/05/11 05:14:36;;;;;;;8.70;7.80;;;;;;;;;;6047037;29;20225;-68
2023/05/11 05:17:56;;;;;;;8.73;6.23;;;;;;;;;;6038320;29;20247;-68
2023/05/11 05:21:17;;;;;;;7.97;6.23;;;;;;;;;;6053804;29;21100;-72
2023/05/11 05:24:38;;;;;;;5.70;4.73;;;;;;;;;;6052854;29;20237;-70
2023/05/11 05:28:00;;;;;;;6.47;4.80;;;;;;;;;;6053857;29;20241;-68
2023/05/11 05:31:21;;;;;;;4.67;4.27;;;;;;;;;;6038167;29;20233;-69
2023/05/11 05:34:45;;;;;;;4.20;3.70;;;;;;;;;;6028884;29;20234;-66
2023/05/11 05:38:06;;;;;;;6.80;4.30;;;;;;;;;;6025171;29;20237;-67
2023/05/11 05:41:27;;;;;;;5.57;4.40;;;;;;;;;;6020089;29;20628;-67
2023/05/11 05:44:50;;;;;;;7.50;5.50;;;;;;;;;;6063367;29;20629;-69
2023/05/11 05:48:11;;;;;;;5.13;4.20;;;;;;;;;;6076460;29;20237;-68
2023/05/11 05:51:32;;;;;;;5.87;4.73;;;;;;;;;;6074650;29;20252;-69
2023/05/11 05:54:52;;;;;;;5.83;4.37;;;;;;;;;;6079545;29;20245;-69
2023/05/11 05:58:13;;;;;;;6.50;5.40;;;;;;;;;;6070466;29;20336;-68
2023/05/11 06:01:36;;;;;;;6.30;5.17;;;;;;;;;;6072374;29;20240;-69
2023/05/11 06:04:57;;;;;;;5.63;4.73;;;;;;;;;;6071683;29;20245;-68
2023/05/11 06:08:17;;;;;;;6.83;5.33;;;;;;;;;;6082630;29;20576;-68
2023/05/11 06:11:38;;;;;;;6.63;5.67;;;;;;;;;;6037647;29;20257;-67
2023/05/11 06:14:59;;;;;;;5.40;4.47;;;;;;;;;;6051293;29;20233;-67
2023/05/11 06:18:21;;;;;;;7.37;5.40;;;;;;;;;;6075821;29;20245;-69
2023/05/11 06:21:44;;;;;;;4.90;4.40;;;;;;;;;;6049544;29;20332;-69
2023/05/11 06:25:05;;;;;;;6.73;4.97;;;;;;;;;;6076880;29;20324;-67
2023/05/11 06:28:28;;;;;;;4.67;4.23;;;;;;;;;;6072657;29;20233;-67
2023/05/11 06:31:53;;;;;;;5.20;4.27;;;;;;;;;;6081853;29;20326;-68
2023/05/11 06:35:16;;;;;;;5.20;3.40;;;;;;;;;;6062690;29;20695;-68
2023/05/11 06:38:37;;;;;;;5.47;4.97;;;;;;;;;;6085912;29;20229;-68
2023/05/11 06:41:57;;;;;;;4.37;3.37;;;;;;;;;;6097138;28;20263;-70
2023/05/11 06:45:18;;;;;;;5.00;4.03;;;;;;;;;;6081226;29;20772;-67
2023/05/11 06:48:38;;;;;;;6.00;4.57;;;;;;;;;;6089038;28;20249;-68
2023/05/11 06:52:00;;;;;;;6.53;5.27;;;;;;;;;;6073143;28;20504;-69
2023/05/11 06:55:21;;;;;;;13.50;11.17;;;;;;;;;;6069831;29;20237;-69
2023/05/11 06:58:42;;;;;;;9.17;8.27;;;;;;;;;;6079233;29;20229;-66
2023/05/11 07:02:02;;;;;;;7.73;5.47;;;;;;;;;;6073754;29;20228;-66
2023/05/11 07:05:22;;;;;;;6.60;6.00;;;;;;;;;;6068829;29;20237;-68
2023/05/11 07:08:44;;;;;;;7.17;5.30;;;;;;;;;;6060345;29;20229;-68
2023/05/11 07:12:05;;;;;;;6.07;5.37;;;;;;;;;;6063972;29;20341;-66
2023/05/11 07:15:26;;;;;;;8.43;6.60;;;;;;;;;;6069785;29;20244;-69
2023/05/11 07:18:46;;;;;;;8.67;7.63;;;;;;;;;;6060300;29;20241;-69
2023/05/11 07:22:07;;;;;;;7.00;5.57;;;;;;;;;;6069737;29;20255;-68
2023/05/11 07:25:29;;;;;;;7.17;5.07;;;;;;;;;;6071876;29;20596;-67
2023/05/11 07:28:49;;;;;;;6.80;6.10;;;;;;;;;;6063626;29;20233;-71
2023/05/11 07:32:10;;;;;;;7.47;6.70;;;;;;;;;;6074127;29;20229;-68
2023/05/11 07:35:30;;;;;;;5.83;5.20;;;;;;;;;;6061303;29;20241;-68
2023/05/11 07:38:50;;;;;;;9.50;6.53;;;;;;;;;;6041956;29;20354;-69
2023/05/11 07:42:12;;;;;;;8.60;6.27;;;;;;;;;;6048392;29;20847;-67
2023/05/11 07:45:32;;;;;;;8.37;7.37;;;;;;;;;;6069198;29;20237;-68
2023/05/11 07:48:53;;;;;;;8.07;6.80;;;;;;;;;;6041534;29;20255;-68
2023/05/11 07:52:14;;;;;;;8.87;6.80;;;;;;;;;;6063083;29;20651;-67
2023/05/11 07:55:34;;;;;;;9.30;6.83;;;;;;;;;;6062735;29;20233;-68
2023/05/11 07:58:56;;;;;;;10.07;7.67;;;;;;;;;;6033548;29;20679;-70
2023/05/11 08:02:17;;;;;;;5.83;5.27;;;;;;;;;;6044336;29;20229;-69
2023/05/11 08:05:38;;;;;;;10.77;6.17;;;;;;;;;;6060725;29;20237;-67
2023/05/11 08:08:58;;;;;;;6.77;6.13;;;;;;;;;;6069145;29;20323;-68
2023/05/11 08:12:19;;;;;;;6.77;5.43;;;;;;;;;;6075775;29;20618;-68
2023/05/11 08:15:41;;;;;;;6.33;5.73;;;;;;;;;;6056915;29;20237;-67
2023/05/11 08:19:01;;;;;;;9.43;6.40;;;;;;;;;;6064158;29;20615;-67
2023/05/11 08:22:22;;;;;;;7.63;5.40;;;;;;;;;;6083961;29;20578;-67
2023/05/11 08:25:48;;;;;;;8.10;6.27;;;;;;;;;;6052466;29;20229;-66
2023/05/11 08:29:08;;;;;;;8.50;5.53;;;;;;;;;;6069647;28;20268;-66
2023/05/11 08:32:30;;;;;;;7.60;5.63;;;;;;;;;;6075985;29;20235;-66
2023/05/11 08:35:51;;;;;;;8.07;5.57;;;;;;;;;;6063001;29;20236;-67
2023/05/11 08:39:11;;;;;;;6.77;5.97;;;;;;;;;;6075475;29;20233;-68
2023/05/11 08:42:33;;;;;;;5.70;5.10;;;;;;;;;;6078580;29;20239;-67
2023/05/11 08:45:56;;;;;;;6.10;4.70;;;;;;;;;;6064601;29;20229;-68
2023/05/11 08:49:18;;;;;;;10.17;5.90;;;;;;;;;;6085162;29;20245;-68
2023/05/11 08:52:39;;;;;;;5.60;4.83;;;;;;;;;;6086489;29;20236;-68
2023/05/11 08:56:00;;;;;;;4.53;4.07;;;;;;;;;;6058985;29;20237;-68
2023/05/11 08:59:22;;;;;;;5.63;4.93;;;;;;;;;;6062123;29;20248;-67
2023/05/11 09:02:43;;;;;;;4.63;4.13;;;;;;;;;;6037976;29;20233;-68
2023/05/11 09:06:06;;;;;;;6.77;4.70;;;;;;;;;;6030122;29;20309;-68
2023/05/11 09:09:26;;;;;;;6.33;5.73;;;;;;;;;;6089170;28;20332;-69
2023/05/11 09:12:46;;;;;;;6.80;3.77;;;;;;;;;;6087846;29;20346;-67
2023/05/11 09:16:07;;;;;;;6.77;4.60;;;;;;;;;;6043689;29;20662;-68
2023/05/11 09:19:28;;;;;;;7.57;6.03;;;;;;;;;;6070124;29;20230;-68
2023/05/11 09:22:52;;;;;;;5.63;4.00;;;;;;;;;;6054993;29;20240;-68
2023/05/11 09:26:15;;;;;;;5.87;5.20;;;;;;;;;;6052210;29;20237;-67
2023/05/11 09:29:36;;;;;;;4.37;3.97;;;;;;;;;;6088214;28;20226;-68
2023/05/11 09:32:57;;;;;;;7.03;6.00;;;;;;;;;;6085086;29;20232;-68
2023/05/11 09:36:22;;;;;;;12.73;10.17;;;;;;;;;;6055287;29;20237;-68
2023/05/11 09:39:45;;;;;;;10.77;9.77;;;;;;;;;;6047396;29;20548;-68
2023/05/11 09:43:15;;;;;;;12.67;7.43;;;;;;;;;;6071612;29;20503;-68
2023/05/11 09:46:37;;;;;;;8.87;6.93;;;;;;;;;;6070749;29;20231;-69
2023/05/11 09:49:57;;;;;;;6.07;5.47;;;;;;;;;;6070118;29;20248;-68
2023/05/11 09:53:18;;;;;;;5.67;5.17;;;;;;;;;;6054306;29;20238;-68
2023/05/11 09:56:47;;;;;;;9.00;5.90;;;;;;;;;;6059264;29;20230;-67
2023/05/11 10:00:14;;;;;;;8.37;5.93;;;;;;;;;;6074474;29;20237;-67
2023/05/11 10:03:45;;;;;;;6.93;6.23;;;;;;;;;;6078823;29;22080;-67
2023/05/11 10:07:05;;;;;;;9.00;6.77;;;;;;;;;;6062450;29;20235;-63
2023/05/11 10:10:28;;;;;;;7.10;5.37;;;;;;;;;;6059943;29;20228;-65
2023/05/11 10:13:50;;;;;;;8.77;5.80;;;;;;;;;;6062842;29;20237;-64
2023/05/11 10:17:12;;;;;;;7.87;5.67;;;;;;;;;;6044044;29;20232;-63
2023/05/11 10:20:33;;;;;;;6.27;5.23;;;;;;;;;;6059884;29;20238;-65
2023/05/11 10:23:54;;;;;;;5.27;4.40;;;;;;;;;;6058921;29;20233;-64
2023/05/11 10:27:14;;;;;;;6.00;4.60;;;;;;;;;;6072276;29;20235;-65
2023/05/11 10:30:36;;;;;;;4.83;3.80;;;;;;;;;;6066975;29;20696;-64
2023/05/11 10:33:57;;;;;;;6.17;4.17;;;;;;;;;;6031489;29;20229;-64
2023/05/11 10:37:17;;;;;;;5.50;4.97;;;;;;;;;;6075797;29;20240;-65
2023/05/11 10:40:40;;;;;;;5.43;4.53;;;;;;;;;;6063607;29;20337;-64
2023/05/11 10:44:07;;;;;;;5.00;3.83;;;;;;;;;;6039829;29;20242;-65
2023/05/11 10:47:44;;;;;;;6.27;4.47;;;;;;;;;;6079183;29;20248;-65
2023/05/11 10:51:13;;;;;;;8.17;4.77;;;;;;;;;;6065570;29;20242;-65
2023/05/11 10:54:41;;;;;;;4.20;3.43;;;;;;;;;;6072400;29;20256;-65
2023/05/11 10:58:08;;;;;;;5.67;4.40;;;;;;;;;;6081681;29;20738;-63
2023/05/11 11:01:36;;;;;;;4.10;3.77;;;;;;;;;;6035038;29;20636;-64
2023/05/11 11:05:04;;;;;;;5.03;4.50;;;;;;;;;;6038937;29;20237;-65
2023/05/11 11:08:25;;;;;;;6.43;4.77;;;;;;;;;;6052593;29;20242;-69
2023/05/11 11:11:46;;;;;;;5.40;3.90;;;;;;;;;;6049087;29;20228;-67
2023/05/11 11:15:07;;;;;;;3.67;3.37;;;;;;;;;;6078249;29;20320;-67
2023/05/11 11:18:29;;;;;;;4.37;3.97;;;;;;;;;;6081773;29;20280;-68
2023/05/11 11:21:51;;;;;;;15.40;13.57;;;;;;;;;;6070956;29;20232;-66
2023/05/11 11:25:12;;;;;;;5.43;4.93;;;;;;;;;;6067593;28;20248;-66
2023/05/11 11:28:47;;;;;;;4.47;3.30;;;;;;;;;;6061642;29;20248;-65
2023/05/11 11:32:25;;;;;;;4.37;4.00;;;;;;;;;;6050503;29;20237;-64
2023/05/11 11:35:45;;;;;;;3.77;3.53;;;;;;;;;;6055563;29;21068;-69
2023/05/11 11:39:07;;;;;;;3.20;3.00;;;;;;;;;;6060751;29;20230;-66
2023/05/11 11:42:36;;;;;;;3.57;3.23;;;;;;;;;;6060273;29;20256;-67
2023/05/11 11:45:58;;;;;;;4.37;3.53;;;;;;;;;;6044955;29;20585;-67
2023/05/11 11:49:26;;;;;;;3.67;2.67;;;;;;;;;;6091413;29;20237;-66
2023/05/11 11:52:47;;;;;;;4.30;3.75;;;;;;;;;;6082595;29;20748;-65
2023/05/11 11:56:29;;;;;;;3.38;3.08;;;;;;;;;;6065116;29;20334;-66
2023/05/11 11:59:50;;;;;;;4.25;3.85;;;;;;;;;;6071584;28;20511;-65
2023/05/11 12:03:10;;;;;;;5.00;3.70;;;;;;;;;;6080037;29;20237;-67
2023/05/11 12:06:36;;;;;;;4.57;3.47;;;;;;;;;;6062393;29;20235;-66
2023/05/11 12:09:56;;;;;;;3.85;2.63;;;;;;;;;;6055325;29;20237;-69
2023/05/11 12:13:19;;;;;;;2.78;2.58;;;;;;;;;;6062736;29;20249;-67
2023/05/11 12:16:39;;;;;;;3.15;2.90;;;;;;;;;;6067638;29;20795;-66
2023/05/11 12:20:15;;;;;;;4.03;2.90;;;;;;;;;;6039373;29;20234;-65
2023/05/11 12:23:36;;;;;;;3.45;3.15;;;;;;;;;;6052238;29;20282;-68
2023/05/11 12:26:57;;;;;;;3.00;2.70;;;;;;;;;;6059373;29;20247;-65
2023/05/11 12:30:23;;;;;;;3.25;2.70;;;;;;;;;;6074905;29;20344;-65
2023/05/11 12:33:47;;;;;;;2.90;2.55;;;;;;;;;;6051789;29;20233;-64
2023/05/11 12:37:08;;;;;;;4.45;3.50;;;;;;;;;;6074294;29;20244;-66
2023/05/11 12:40:28;;;;;;;3.35;2.47;;;;;;;;;;6061730;29;20244;-65
2023/05/11 12:43:49;;;;;;;3.60;3.33;;;;;;;;;;6057789;29;20648;-65
2023/05/11 12:47:11;;;;;;;4.55;3.33;;;;;;;;;;6053084;29;20240;-65
2023/05/11 12:50:32;;;;;;;5.38;4.28;;;;;;;;;;6061660;29;20281;-65
2023/05/11 12:53:52;;;;;;;3.38;3.08;;;;;;;;;;6055379;29;20232;-65
2023/05/11 12:57:22;;;;;;;3.85;3.55;;;;;;;;;;6078247;29;20583;-65
2023/05/11 13:00:53;;;;;;;2.75;2.55;;;;;;;;;;6046333;29;20302;-64
2023/05/11 13:04:15;;;;;;;2.65;2.42;;;;;;;;;;6058842;29;20613;-66
2023/05/11 13:07:37;;;;;;;4.72;4.32;;;;;;;;;;6067328;29;20639;-65
2023/05/11 13:11:12;;;;;;;4.82;4.40;;;;;;;;;;6046018;29;20346;-66
2023/05/11 13:14:32;;;;;;;4.03;3.63;;;;;;;;;;6066666;29;20277;-65
2023/05/11 13:17:57;;;;;;;8.20;7.40;;;;;;;;;;6084032;29;20232;-65
2023/05/11 13:21:19;;;;;;;3.83;3.53;;;;;;;;;;6043297;29;20252;-64
2023/05/11 13:24:39;;;;;;;4.95;3.70;;;;;;;;;;6076858;29;20248;-66
2023/05/11 13:28:01;;;;;;;3.53;3.22;;;;;;;;;;6048116;29;20229;-65
2023/05/11 13:31:22;;;;;;;3.05;2.72;;;;;;;;;;6065384;29;20240;-67
2023/05/11 13:34:42;;;;;;;3.25;3.00;;;;;;;;;;6083420;28;20241;-66
2023/05/11 13:38:04;;;;;;;3.65;3.35;;;;;;;;;;6064971;29;20236;-64
2023/05/11 13:41:25;;;;;;;3.20;3.00;;;;;;;;;;6056305;29;20224;-66
2023/05/11 13:44:46;;;;;;;3.33;3.03;;;;;;;;;;6052439;29;20244;-66
2023/05/11 13:48:07;;;;;;;4.40;3.25;;;;;;;;;;6060291;29;20237;-66
2023/05/11 13:51:27;;;;;;;2.85;2.63;;;;;;;;;;6056232;29;20236;-65
2023/05/11 13:54:49;;;;;;;2.97;2.72;;;;;;;;;;6079059;29;20367;-66
2023/05/11 13:58:10;;;;;;;2.83;2.45;;;;;;;;;;6082338;29;20264;-65
2023/05/11 14:01:31;;;;;;;2.50;2.28;;;;;;;;;;6044908;29;20232;-64
2023/05/11 14:04:51;;;;;;;4.43;3.60;;;;;;;;;;6063152;29;20249;-65
2023/05/11 14:08:12;;;;;;;5.22;4.82;;;;;;;;;;6084254;29;20245;-65
2023/05/11 14:11:34;;;;;;;5.45;4.95;;;;;;;;;;6074362;29;20240;-65
2023/05/11 14:14:55;;;;;;;2.55;2.35;;;;;;;;;;6083008;29;20389;-66
2023/05/11 14:18:15;;;;;;;3.92;3.53;;;;;;;;;;6052708;29;20278;-69
2023/05/11 14:21:36;;;;;;;7.13;4.93;;;;;;;;;;6061657;28;20228;-69
2023/05/11 14:24:56;;;;;;;4.95;3.72;;;;;;;;;;6071831;29;21021;-69
2023/05/11 14:28:18;;;;;;;5.45;4.50;;;;;;;;;;6076707;29;20233;-70
2023/05/11 14:31:39;;;;;;;5.00;4.38;;;;;;;;;;6071686;29;20669;-69
2023/05/11 14:35:00;;;;;;;4.63;4.22;;;;;;;;;;6078800;29;20286;-68
2023/05/11 14:38:20;;;;;;;4.32;4.03;;;;;;;;;;6079920;29;20233;-69
2023/05/11 14:41:41;;;;;;;4.40;4.00;;;;;;;;;;6045373;29;20268;-69
2023/05/11 14:45:02;;;;;;;5.10;3.88;;;;;;;;;;6069184;28;20512;-68
2023/05/11 14:48:23;;;;;;;3.33;3.03;;;;;;;;;;6050535;29;20234;-68
2023/05/11 14:51:44;;;;;;;4.18;3.75;;;;;;;;;;6045271;29;20240;-67
2023/05/11 14:55:05;;;;;;;4.28;3.78;;;;;;;;;;6053033;29;20492;-69
2023/05/11 14:58:25;;;;;;;3.63;3.30;;;;;;;;;;6062836;29;20230;-69
2023/05/11 15:01:48;;;;;;;4.78;4.38;;;;;;;;;;6054021;29;20232;-68
2023/05/11 15:05:09;;;;;;;5.05;4.57;;;;;;;;;;6067696;29;20257;-69
2023/05/11 15:08:30;;;;;;;4.88;4.40;;;;;;;;;;6087415;29;20253;-68
2023/05/11 15:11:50;;;;;;;4.13;3.58;;;;;;;;;;6052123;29;20237;-68
2023/05/11 15:15:11;;;;;;;3.58;3.28;;;;;;;;;;6068914;29;20312;-68
2023/05/11 15:18:33;;;;;;;5.00;4.53;;;;;;;;;;6078450;28;20225;-69
2023/05/11 15:21:53;;;;;;;6.28;5.32;;;;;;;;;;6065643;29;20247;-68
2023/05/11 15:25:14;;;;;;;4.80;4.43;;;;;;;;;;6069665;29;20249;-69
2023/05/11 15:28:35;;;;;;;4.18;3.65;;;;;;;;;;6062383;29;20244;-69
2023/05/11 15:31:55;;;;;;;5.95;5.03;;;;;;;;;;6054609;29;20264;-68
2023/05/11 15:35:17;;;;;;;4.32;4.03;;;;;;;;;;6062986;29;20244;-69
2023/05/11 15:38:37;;;;;;;4.45;4.05;;;;;;;;;;6045324;29;20229;-68
2023/05/11 15:41:57;;;;;;;4.60;4.07;;;;;;;;;;6072705;29;20240;-69
2023/05/11 15:45:18;;;;;;;5.65;4.22;;;;;;;;;;6048717;29;20394;-69
2023/05/11 15:48:38;;;;;;;6.55;5.95;;;;;;;;;;6079302;29;20233;-68
2023/05/11 15:52:00;;;;;;;7.47;6.75;;;;;;;;;;6077127;29;20304;-67
2023/05/11 15:55:21;;;;;;;7.10;6.10;;;;;;;;;;6074614;29;20241;-70
2023/05/11 15:58:41;;;;;;;5.07;4.63;;;;;;;;;;6054289;29;20237;-68
2023/05/11 16:02:02;;;;;;;4.93;4.53;;;;;;;;;;6038946;29;20896;-68
2023/05/11 16:05:23;;;;;;;6.97;6.28;;;;;;;;;;6076225;28;20249;-68
2023/05/11 16:08:45;;;;;;;6.20;5.43;;;;;;;;;;6065022;29;20238;-68
2023/05/11 16:12:06;;;;;;;7.32;6.65;;;;;;;;;;6049195;29;20604;-69
2023/05/11 16:15:28;;;;;;;8.82;7.30;;;;;;;;;;6069760;28;20495;-69
2023/05/11 16:18:48;;;;;;;8.75;8.05;;;;;;;;;;6042114;29;20619;-67
2023/05/11 16:22:08;;;;;;;6.15;5.47;;;;;;;;;;6055069;29;20228;-68
2023/05/11 16:25:30;;;;;;;10.40;9.35;;;;;;;;;;6069397;29;20627;-68
2023/05/11 16:28:50;;;;;;;5.30;4.80;;;;;;;;;;6054781;29;20237;-68
2023/05/11 16:32:12;;;;;;;7.55;5.30;;;;;;;;;;6062245;29;20240;-68
2023/05/11 16:35:34;;;;;;;4.57;4.18;;;;;;;;;;6068625;28;20276;-68
2023/05/11 16:38:55;;;;;;;5.15;4.63;;;;;;;;;;6052744;29;20265;-67
2023/05/11 16:42:17;;;;;;;5.30;4.72;;;;;;;;;;6073604;29;20250;-69
2023/05/11 16:45:37;;;;;;;8.07;7.30;;;;;;;;;;6061074;29;20229;-67
2023/05/11 16:48:58;;;;;;;6.25;5.75;;;;;;;;;;6052285;28;20241;-68
2023/05/11 16:52:18;;;;;;;8.77;7.97;;;;;;;;;;6044400;29;22497;-67
2023/05/11 16:55:39;;;;;;;8.05;7.35;;;;;;;;;;6050505;29;20266;-68
2023/05/11 16:59:01;;;;;;;11.43;8.23;;;;;;;;;;6037298;29;20879;-68
2023/05/11 17:02:21;;;;;;;8.93;8.02;;;;;;;;;;6064729;28;20244;-69
2023/05/11 17:05:42;;;;;;;12.60;11.07;;;;;;;;;;6033183;29;20246;-67
2023/05/11 17:09:03;;;;;;;12.27;8.93;;;;;;;;;;6062204;29;20241;-69
2023/05/11 17:12:24;;;;;;;9.57;8.70;;;;;;;;;;6050743;29;20517;-68
2023/05/11 17:15:45;;;;;;;7.15;6.45;;;;;;;;;;6042752;29;20741;-66
2023/05/11 17:19:07;;;;;;;22.27;19.98;;;;;;;;;;6052272;28;20538;-68
2023/05/11 17:22:28;;;;;;;12.80;10.77;;;;;;;;;;6074221;28;20844;-68
2023/05/11 17:25:48;;;;;;;12.07;11.10;;;;;;;;;;6053613;29;20229;-68
2023/05/11 17:29:10;;;;;;;8.70;7.90;;;;;;;;;;6081685;28;20264;-67
2023/05/11 17:32:32;;;;;;;10.63;9.60;;;;;;;;;;6059080;29;20314;-66
2023/05/11 17:35:53;;;;;;;19.30;17.40;;;;;;;;;;6048703;29;20672;-65
2023/05/11 17:39:14;;;;;;;9.82;8.98;;;;;;;;;;6068460;29;20606;-65
2023/05/11 17:42:35;;;;;;;9.07;8.32;;;;;;;;;;6039083;29;20248;-66
2023/05/11 17:45:55;;;;;;;7.38;6.82;;;;;;;;;;6042214;29;20236;-66
2023/05/11 17:49:17;;;;;;;7.97;7.25;;;;;;;;;;6061113;29;20241;-66
2023/05/11 17:52:38;;;;;;;7.28;5.90;;;;;;;;;;6042211;29;20255;-67
2023/05/11 17:55:59;;;;;;;7.80;7.00;;;;;;;;;;6033106;29;20260;-66
2023/05/11 17:59:19;;;;;;;8.43;7.63;;;;;;;;;;6043763;29;20328;-68
2023/05/11 18:02:40;;;;;;;8.93;7.07;;;;;;;;;;6048317;29;20263;-67
2023/05/11 18:06:02;;;;;;;7.63;6.82;;;;;;;;;;6045967;29;20250;-69
2023/05/11 18:09:22;;;;;;;8.25;7.55;;;;;;;;;;6050749;29;20245;-69
2023/05/11 18:12:43;;;;;;;9.90;8.88;;;;;;;;;;6079226;28;20252;-68
2023/05/11 18:16:04;;;;;;;8.75;8.05;;;;;;;;;;6048040;29;20237;-68
2023/05/11 18:19:25;;;;;;;8.35;7.55;;;;;;;;;;6073064;28;20509;-68
2023/05/11 18:22:47;;;;;;;8.45;7.25;;;;;;;;;;6078541;28;20578;-67
2023/05/11 18:26:08;;;;;;;9.25;7.68;;;;;;;;;;6038804;29;20253;-68
2023/05/11 18:29:29;;;;;;;10.80;8.63;;;;;;;;;;6053897;29;20230;-68
2023/05/11 18:32:49;;;;;;;7.55;6.82;;;;;;;;;;6081359;29;20244;-68
2023/05/11 18:36:10;;;;;;;8.95;7.82;;;;;;;;;;6062194;29;20248;-68
2023/05/11 18:39:32;;;;;;;12.57;11.05;;;;;;;;;;6084538;29;20233;-68
2023/05/11 18:42:54;;;;;;;11.15;10.02;;;;;;;;;;6071356;29;20248;-68
2023/05/11 18:46:15;;;;;;;15.27;10.40;;;;;;;;;;6047453;29;20237;-69
2023/05/11 18:49:36;;;;;;;10.63;9.63;;;;;;;;;;6070239;29;20510;-68
2023/05/11 18:52:56;;;;;;;9.10;8.25;;;;;;;;;;6052369;29;20237;-68
2023/05/11 18:56:21;;;;;;;11.35;10.25;;;;;;;;;;6032887;29;20240;-67
2023/05/11 18:59:41;;;;;;;7.38;6.78;;;;;;;;;;6051193;29;20246;-68
2023/05/11 19:03:02;;;;;;;7.20;6.50;;;;;;;;;;6049880;29;20236;-69
2023/05/11 19:06:22;;;;;;;7.97;7.22;;;;;;;;;;6045585;29;20236;-67
2023/05/11 19:09:43;;;;;;;9.25;6.60;;;;;;;;;;6055820;29;20232;-68
2023/05/11 19:13:06;;;;;;;8.30;6.88;;;;;;;;;;6087121;28;20232;-68
2023/05/11 19:16:28;;;;;;;6.85;6.20;;;;;;;;;;6061001;28;20228;-67
2023/05/11 19:19:48;;;;;;;7.15;6.53;;;;;;;;;;6083323;29;20229;-69
2023/05/11 19:23:09;;;;;;;6.70;5.85;;;;;;;;;;6050862;29;20536;-69
2023/05/11 19:26:30;;;;;;;6.22;5.72;;;;;;;;;;6049063;29;20606;-66
2023/05/11 19:29:53;;;;;;;7.55;6.63;;;;;;;;;;6068482;29;20237;-69
2023/05/11 19:33:13;;;;;;;5.85;5.35;;;;;;;;;;6072122;28;20766;-68
2023/05/11 19:36:34;;;;;;;6.45;5.70;;;;;;;;;;6064266;29;20228;-68
2023/05/11 19:39:54;;;;;;;5.88;5.38;;;;;;;;;;6075984;29;20761;-67
2023/05/11 19:43:15;;;;;;;6.53;5.95;;;;;;;;;;6081977;29;20229;-68
2023/05/11 19:46:44;;;;;;;6.95;6.25;;;;;;;;;;6052214;29;20827;-68
2023/05/11 19:50:07;;;;;;;6.22;5.38;;;;;;;;;;6076475;29;20240;-68
2023/05/11 19:53:27;;;;;;;5.93;5.40;;;;;;;;;;6082097;28;20234;-68
2023/05/11 19:56:48;;;;;;;6.10;5.45;;;;;;;;;;6063525;29;20273;-68
2023/05/11 20:00:10;;;;;;;6.35;5.75;;;;;;;;;;6065587;28;20450;-68
2023/05/11 20:03:32;;;;;;;8.07;6.97;;;;;;;;;;6050589;29;20342;-68
2023/05/11 20:06:53;;;;;;;5.93;4.80;;;;;;;;;;6068702;29;20267;-68